createdAt,value
2022-10-08T00:01:24.721Z,13.17
2022-10-08T00:03:54.629Z,13.15
2022-10-08T00:06:24.020Z,13.11
2022-10-08T00:08:53.853Z,13.08
2022-10-08T00:11:23.407Z,13.06
2022-10-08T00:13:52.659Z,13.03
2022-10-08T00:16:24.195Z,12.99
2022-10-08T00:18:53.958Z,12.96
2022-10-08T00:21:24.412Z,12.95
2022-10-08T00:23:54.010Z,12.95
2022-10-08T00:26:25.352Z,12.96
2022-10-08T00:28:55.068Z,12.89
2022-10-08T00:31:26.401Z,12.88
2022-10-08T00:33:58.060Z,12.84
2022-10-08T00:36:27.989Z,12.84
2022-10-08T00:38:57.309Z,12.81
2022-10-08T00:41:28.304Z,12.79
2022-10-08T00:43:59.188Z,12.79
2022-10-08T00:46:32.321Z,12.77
2022-10-08T00:49:03.679Z,12.76
2022-10-08T00:51:33.252Z,12.73
2022-10-08T00:54:03.275Z,12.72
2022-10-08T00:56:34.916Z,12.73
2022-10-08T00:59:02.950Z,12.71
2022-10-08T01:01:32.640Z,12.69
2022-10-08T01:04:04.004Z,12.69
2022-10-08T01:06:35.605Z,12.67
2022-10-08T01:09:11.088Z,12.66
2022-10-08T01:11:49.124Z,12.67
2022-10-08T01:14:30.210Z,12.67
2022-10-08T01:17:08.492Z,12.69
2022-10-08T01:20:12.163Z,12.69
2022-10-08T01:22:58.691Z,12.66
2022-10-08T01:25:37.726Z,12.67
2022-10-08T01:28:14.607Z,12.66
2022-10-08T01:30:49.449Z,12.66
2022-10-08T01:33:22.756Z,12.67
2022-10-08T01:35:57.231Z,12.67
2022-10-08T01:38:29.200Z,12.67
2022-10-08T01:41:00.298Z,12.68
2022-10-08T01:43:34.751Z,12.70
2022-10-08T01:46:09.842Z,12.69
2022-10-08T01:48:42.123Z,12.73
2022-10-08T01:51:15.930Z,12.72
2022-10-08T01:53:47.180Z,12.74
2022-10-08T01:56:19.811Z,12.72
2022-10-08T01:58:54.392Z,12.71
2022-10-08T02:01:33.917Z,12.71
2022-10-08T02:04:19.599Z,12.75
2022-10-08T02:06:52.660Z,12.73
2022-10-08T02:09:21.040Z,12.78
2022-10-08T02:11:49.064Z,12.77
2022-10-08T02:14:18.758Z,12.78
2022-10-08T02:16:55.734Z,12.77
2022-10-08T02:19:30.865Z,12.76
2022-10-08T02:22:02.004Z,12.77
2022-10-08T02:24:37.592Z,12.76
2022-10-08T02:27:09.780Z,12.74
2022-10-08T02:29:45.836Z,12.73
2022-10-08T02:32:19.721Z,12.73
2022-10-08T02:34:51.813Z,12.73
2022-10-08T02:37:24.505Z,12.71
2022-10-08T02:39:59.488Z,12.73
2022-10-08T02:42:29.756Z,12.66
2022-10-08T02:45:04.603Z,12.65
2022-10-08T02:47:35.313Z,12.64
2022-10-08T02:50:11.298Z,12.60
2022-10-08T02:52:42.940Z,12.61
2022-10-08T02:55:19.923Z,12.60
2022-10-08T02:57:55.703Z,12.59
2022-10-08T03:00:28.092Z,12.58
2022-10-08T03:03:01.414Z,12.58
2022-10-08T03:05:30.102Z,12.55
2022-10-08T03:07:59.949Z,12.51
2022-10-08T03:10:30.550Z,12.50
2022-10-08T03:13:01.969Z,12.49
2022-10-08T03:15:33.126Z,12.50
2022-10-08T03:18:03.533Z,12.45
2022-10-08T03:20:32.132Z,12.46
2022-10-08T03:23:02.721Z,12.43
2022-10-08T03:25:30.605Z,12.41
2022-10-08T03:27:58.508Z,12.38
2022-10-08T03:30:26.470Z,12.37
2022-10-08T03:32:55.782Z,12.37
2022-10-08T03:35:23.831Z,12.33
2022-10-08T03:37:53.847Z,12.32
2022-10-08T03:40:22.220Z,12.36
2022-10-08T03:42:51.763Z,12.36
2022-10-08T03:45:19.654Z,12.35
2022-10-08T03:47:51.554Z,12.35
2022-10-08T03:50:21.200Z,12.32
2022-10-08T03:52:49.508Z,12.32
2022-10-08T03:55:17.850Z,12.31
2022-10-08T03:57:45.698Z,12.30
2022-10-08T04:00:14.291Z,12.30
2022-10-08T04:02:42.221Z,12.35
2022-10-08T04:05:10.632Z,12.39
2022-10-08T04:07:39.935Z,12.38
2022-10-08T04:10:09.084Z,12.40
2022-10-08T04:12:36.939Z,12.43
2022-10-08T04:15:05.487Z,12.50
2022-10-08T04:17:33.423Z,12.50
2022-10-08T04:20:01.401Z,12.49
2022-10-08T04:22:29.385Z,12.50
2022-10-08T04:24:58.704Z,12.48
2022-10-08T04:27:26.634Z,12.49
2022-10-08T04:29:54.552Z,12.48
2022-10-08T04:32:22.458Z,12.54
2022-10-08T04:34:50.833Z,12.56
2022-10-08T04:37:18.708Z,12.59
2022-10-08T04:39:46.632Z,12.60
2022-10-08T04:42:15.969Z,12.61
2022-10-08T04:44:43.879Z,12.64
2022-10-08T04:47:11.751Z,12.63
2022-10-08T04:49:39.668Z,12.64
2022-10-08T04:52:07.615Z,12.61
2022-10-08T04:54:35.700Z,12.60
2022-10-08T04:57:03.637Z,12.59
2022-10-08T04:59:32.977Z,12.56
2022-10-08T05:02:01.301Z,12.53
2022-10-08T05:04:29.430Z,12.54
2022-10-08T05:06:57.517Z,12.48
2022-10-08T05:09:25.448Z,12.47
2022-10-08T05:11:53.305Z,12.44
2022-10-08T05:14:21.334Z,12.41
2022-10-08T05:16:50.889Z,12.38
2022-10-08T05:19:18.824Z,12.36
2022-10-08T05:21:46.938Z,12.36
2022-10-08T05:24:14.789Z,12.30
2022-10-08T05:26:59.193Z,12.24
2022-10-08T05:29:28.403Z,12.22
2022-10-08T05:31:57.749Z,12.19
2022-10-08T05:34:25.648Z,12.15
2022-10-08T05:36:53.716Z,12.11
2022-10-08T05:39:21.722Z,12.09
2022-10-08T05:41:49.668Z,12.08
2022-10-08T05:44:17.554Z,12.11
2022-10-08T05:46:45.501Z,12.15
2022-10-08T05:49:18.421Z,12.16
2022-10-08T05:51:46.420Z,12.13
2022-10-08T05:54:14.527Z,12.11
2022-10-08T05:56:42.448Z,12.08
2022-10-08T05:59:16.689Z,12.08
2022-10-08T06:01:44.652Z,12.09
2022-10-08T06:04:12.809Z,12.02
2022-10-08T06:06:44.275Z,12.04
2022-10-08T06:09:14.745Z,12.05
2022-10-08T06:11:43.460Z,12.09
2022-10-08T06:14:12.880Z,12.11
2022-10-08T06:16:41.564Z,12.11
2022-10-08T06:19:10.240Z,12.12
2022-10-08T06:21:38.590Z,12.17
2022-10-08T06:24:10.274Z,12.18
2022-10-08T06:26:40.222Z,12.17
2022-10-08T06:29:10.008Z,12.21
2022-10-08T06:31:38.164Z,12.23
2022-10-08T06:34:06.619Z,12.25
2022-10-08T06:36:37.122Z,12.26
2022-10-08T06:39:09.101Z,12.27
2022-10-08T06:41:37.352Z,12.29
2022-10-08T06:44:06.838Z,12.34
2022-10-08T06:46:35.756Z,12.35
2022-10-08T06:49:06.051Z,12.38
2022-10-08T06:51:34.877Z,12.39
2022-10-08T06:54:07.417Z,12.42
2022-10-08T06:56:38.876Z,12.46
2022-10-08T06:59:07.930Z,12.48
2022-10-08T07:01:36.425Z,12.52
2022-10-08T07:04:07.027Z,12.54
2022-10-08T07:06:35.320Z,12.58
2022-10-08T07:09:03.824Z,12.64
2022-10-08T07:11:33.345Z,12.69
2022-10-08T07:14:02.634Z,12.75
2022-10-08T07:16:30.843Z,12.77
2022-10-08T07:21:42.054Z,12.88
2022-10-08T07:24:10.071Z,12.93
2022-10-08T07:26:38.103Z,13.01
2022-10-08T07:29:09.308Z,13.07
2022-10-08T07:31:38.823Z,13.10
2022-10-08T07:34:08.518Z,13.18
2022-10-08T07:36:36.767Z,13.22
2022-10-08T07:39:06.624Z,13.24
2022-10-08T07:41:35.248Z,13.31
2022-10-08T07:44:04.188Z,13.30
2022-10-08T07:46:35.120Z,13.42
2022-10-08T07:49:03.647Z,13.50
2022-10-08T07:51:33.780Z,13.49
2022-10-08T07:54:03.419Z,13.55
2022-10-08T07:56:33.864Z,13.60
2022-10-08T07:59:02.648Z,13.59
2022-10-08T08:01:31.610Z,13.66
2022-10-08T08:04:03.082Z,13.69
2022-10-08T08:06:31.860Z,13.68
2022-10-08T08:09:01.338Z,13.74
2022-10-08T08:11:29.402Z,13.67
2022-10-08T08:13:57.998Z,13.77
2022-10-08T08:16:27.263Z,13.77
2022-10-08T08:18:57.063Z,13.78
2022-10-08T08:21:28.334Z,13.75
2022-10-08T08:23:58.447Z,13.84
2022-10-08T08:26:28.730Z,13.85
2022-10-08T08:28:59.724Z,13.92
2022-10-08T08:31:29.902Z,13.89
2022-10-08T08:34:00.725Z,14.00
2022-10-08T08:36:32.914Z,13.97
2022-10-08T08:39:01.854Z,14.03
2022-10-08T08:42:11.188Z,14.03
2022-10-08T08:44:41.386Z,14.10
2022-10-08T08:47:15.195Z,14.12
2022-10-08T08:49:45.383Z,14.09
2022-10-08T08:52:17.276Z,14.14
2022-10-08T08:54:49.237Z,14.15
2022-10-08T08:57:32.301Z,14.19
2022-10-08T09:00:05.344Z,14.17
2022-10-08T09:02:39.131Z,14.21
2022-10-08T09:05:12.086Z,14.27
2022-10-08T09:07:46.502Z,14.23
2022-10-08T09:10:20.331Z,14.29
2022-10-08T09:12:50.045Z,14.29
2022-10-08T09:15:21.086Z,14.33
2022-10-08T09:17:52.738Z,14.40
2022-10-08T09:20:24.505Z,14.40
2022-10-08T09:22:55.858Z,14.46
2022-10-08T09:25:25.671Z,14.46
2022-10-08T09:27:55.583Z,14.43
2022-10-08T09:30:36.413Z,14.40
2022-10-08T09:33:17.429Z,14.35
2022-10-08T09:35:49.192Z,14.38
2022-10-08T09:38:23.259Z,14.33
2022-10-08T09:41:02.712Z,14.36
2022-10-08T09:43:30.796Z,14.40
2022-10-08T09:45:59.128Z,14.43
2022-10-08T09:48:28.921Z,14.40
2022-10-08T09:51:01.505Z,14.45
2022-10-08T09:53:36.496Z,14.51
2022-10-08T09:56:07.538Z,14.56
2022-10-08T09:58:39.486Z,14.52
2022-10-08T10:01:14.957Z,14.61
2022-10-08T10:03:50.022Z,14.66
2022-10-08T10:06:26.799Z,14.74
2022-10-08T10:09:01.889Z,14.69
2022-10-08T10:11:35.591Z,14.61
2022-10-08T10:14:12.063Z,14.65
2022-10-08T10:16:42.043Z,14.64
2022-10-08T10:19:17.032Z,14.63
2022-10-08T10:21:51.347Z,14.50
2022-10-08T10:24:46.108Z,14.58
2022-10-08T10:27:20.094Z,14.55
2022-10-08T10:29:57.428Z,14.58
2022-10-08T10:32:32.359Z,14.58
2022-10-08T10:35:07.011Z,14.52
2022-10-08T10:37:44.392Z,14.49
2022-10-08T10:40:37.753Z,14.51
2022-10-08T10:43:28.591Z,14.52
2022-10-08T10:46:01.300Z,14.49
2022-10-08T10:48:30.379Z,14.48
2022-10-08T10:51:12.714Z,14.46
2022-10-08T10:53:50.956Z,14.56
2022-10-08T10:56:22.488Z,14.57
2022-10-08T10:59:21.212Z,14.50
2022-10-08T11:01:59.551Z,14.53
2022-10-08T11:04:42.754Z,14.57
2022-10-08T11:07:29.201Z,14.66
2022-10-08T11:10:04.214Z,14.67
2022-10-08T11:12:43.637Z,14.63
2022-10-08T11:15:23.383Z,14.70
2022-10-08T11:18:07.951Z,14.61
2022-10-08T11:20:52.359Z,14.61
2022-10-08T11:23:47.850Z,14.67
2022-10-08T11:26:23.341Z,14.71
2022-10-08T11:29:09.685Z,14.66
2022-10-08T11:31:42.196Z,14.73
2022-10-08T11:34:22.497Z,14.72
2022-10-08T11:37:03.974Z,14.77
2022-10-08T11:39:40.044Z,14.77
2022-10-08T11:42:14.775Z,14.78
2022-10-08T11:44:44.075Z,14.77
2022-10-08T11:47:51.045Z,14.78
2022-10-08T11:50:31.501Z,14.80
2022-10-08T11:53:14.310Z,14.75
2022-10-08T11:55:50.374Z,14.72
2022-10-08T11:58:23.858Z,14.75
2022-10-08T12:01:01.570Z,14.78
2022-10-08T12:03:33.353Z,14.80
2022-10-08T12:06:14.121Z,14.84
2022-10-08T12:08:53.845Z,14.83
2022-10-08T12:11:48.173Z,14.88
2022-10-08T12:14:30.850Z,14.82
2022-10-08T12:17:13.280Z,14.82
2022-10-08T12:20:28.559Z,14.80
2022-10-08T12:23:06.683Z,14.88
2022-10-08T12:25:41.112Z,14.87
2022-10-08T12:28:47.014Z,14.91
2022-10-08T12:31:28.540Z,14.89
2022-10-08T12:34:03.111Z,14.88
2022-10-08T12:36:44.708Z,14.89
2022-10-08T12:39:27.224Z,14.90
2022-10-08T12:42:05.111Z,14.80
2022-10-08T12:44:43.989Z,14.83
2022-10-08T12:47:24.919Z,14.81
2022-10-08T12:49:59.616Z,14.84
2022-10-08T12:52:27.945Z,14.82
2022-10-08T12:54:58.773Z,14.84
2022-10-08T12:57:30.317Z,14.81
2022-10-08T13:00:00.823Z,14.72
2022-10-08T13:02:37.089Z,14.71
2022-10-08T13:05:08.201Z,14.76
2022-10-08T13:07:36.820Z,14.80
2022-10-08T13:10:21.443Z,14.83
2022-10-08T13:13:03.349Z,14.77
2022-10-08T13:15:33.355Z,14.83
2022-10-08T13:18:01.324Z,14.76
2022-10-08T13:20:30.566Z,14.71
2022-10-08T13:22:58.592Z,14.76
2022-10-08T13:25:33.489Z,14.75
2022-10-08T13:28:15.876Z,14.73
2022-10-08T13:30:46.609Z,14.71
2022-10-08T13:33:19.921Z,14.72
2022-10-08T13:35:55.464Z,14.75
2022-10-08T13:38:26.203Z,14.85
2022-10-08T13:40:58.676Z,14.84
2022-10-08T13:43:27.300Z,14.83
2022-10-08T13:45:55.254Z,14.87
2022-10-08T13:48:23.491Z,14.92
2022-10-08T13:50:53.426Z,14.91
2022-10-08T13:53:23.794Z,14.87
2022-10-08T13:55:52.189Z,14.91
2022-10-08T13:58:21.442Z,14.82
2022-10-08T14:00:50.104Z,14.80
2022-10-08T14:03:18.106Z,14.82
2022-10-08T14:05:48.235Z,14.91
2022-10-08T14:08:20.755Z,14.88
2022-10-08T14:10:49.011Z,14.92
2022-10-08T14:13:17.580Z,14.94
2022-10-08T14:15:45.562Z,14.94
2022-10-08T14:18:13.442Z,14.89
2022-10-08T14:20:41.418Z,14.85
2022-10-08T14:23:11.654Z,14.87
2022-10-08T14:25:40.930Z,14.83
2022-10-08T14:28:09.102Z,14.83
2022-10-08T14:30:37.487Z,14.84
2022-10-08T14:33:10.297Z,14.77
2022-10-08T14:35:39.299Z,14.81
2022-10-08T14:38:07.535Z,14.75
2022-10-08T14:40:35.620Z,14.71
2022-10-08T14:43:04.956Z,14.70
2022-10-08T14:45:32.912Z,14.64
2022-10-08T14:48:00.784Z,14.65
2022-10-08T14:50:28.763Z,14.68
2022-10-08T14:52:56.607Z,14.68
2022-10-08T14:55:24.628Z,14.68
2022-10-08T14:57:52.515Z,14.67
2022-10-08T15:00:21.882Z,14.66
2022-10-08T15:02:49.999Z,14.65
2022-10-08T15:05:18.314Z,14.70
2022-10-08T15:07:46.469Z,14.66
2022-10-08T15:10:14.546Z,14.64
2022-10-08T15:12:42.458Z,14.60
2022-10-08T15:15:11.120Z,14.61
2022-10-08T15:17:40.420Z,14.61
2022-10-08T15:20:08.996Z,14.60
2022-10-08T15:22:36.907Z,14.59
2022-10-08T15:25:05.595Z,14.57
2022-10-08T15:27:33.552Z,14.55
2022-10-08T15:30:01.470Z,14.55
2022-10-08T15:32:30.657Z,14.54
2022-10-08T15:35:00.155Z,14.56
2022-10-08T15:37:28.024Z,14.54
2022-10-08T15:39:55.902Z,14.53
2022-10-08T15:42:23.845Z,14.49
2022-10-08T15:44:51.708Z,14.48
2022-10-08T15:47:19.619Z,14.49
2022-10-08T15:49:47.599Z,14.47
2022-10-08T15:52:19.910Z,14.47
2022-10-08T15:54:48.518Z,14.48
2022-10-08T15:57:18.274Z,14.47
2022-10-08T15:59:46.134Z,14.37
2022-10-08T16:02:17.599Z,14.37
2022-10-08T16:04:46.941Z,14.32
2022-10-08T16:07:16.263Z,14.34
2022-10-08T16:09:44.230Z,14.29
2022-10-08T16:12:12.137Z,14.24
2022-10-08T16:14:39.989Z,14.25
2022-10-08T16:17:08.053Z,14.22
2022-10-08T16:19:36.007Z,14.22
2022-10-08T16:22:04.083Z,14.18
2022-10-08T16:24:33.337Z,14.13
2022-10-08T16:27:01.253Z,14.06
2022-10-08T16:29:29.408Z,14.04
2022-10-08T16:31:57.287Z,14.03
2022-10-08T16:34:27.028Z,13.95
2022-10-08T16:36:55.411Z,13.86
2022-10-08T16:39:25.030Z,13.85
2022-10-08T16:41:54.379Z,13.77
2022-10-08T16:44:23.034Z,13.79
2022-10-08T16:46:53.015Z,13.73
2022-10-08T16:49:25.418Z,13.72
2022-10-08T16:51:55.198Z,13.63
2022-10-08T16:54:23.562Z,13.63
2022-10-08T16:56:51.533Z,13.59
2022-10-08T16:59:22.500Z,13.51
2022-10-08T17:01:52.194Z,13.51
2022-10-08T17:04:21.261Z,13.48
2022-10-08T17:06:49.458Z,13.44
2022-10-08T17:09:17.859Z,13.41
2022-10-08T17:11:45.972Z,13.33
2022-10-08T17:14:14.475Z,13.28
2022-10-08T17:16:45.080Z,13.27
2022-10-08T17:19:13.420Z,13.21
2022-10-08T17:21:42.231Z,13.18
2022-10-08T17:24:11.728Z,13.13
2022-10-08T17:26:40.107Z,13.11
2022-10-08T17:29:09.652Z,13.07
2022-10-08T17:31:38.325Z,12.99
2022-10-08T17:34:08.395Z,12.89
2022-10-08T17:36:38.459Z,12.77
2022-10-08T17:39:08.738Z,12.72
2022-10-08T17:41:38.347Z,12.64
2022-10-08T17:44:08.329Z,12.56
2022-10-08T17:46:37.943Z,12.50
2022-10-08T17:49:07.580Z,12.46
2022-10-08T17:51:35.656Z,12.38
2022-10-08T17:54:06.124Z,12.28
2022-10-08T17:56:35.049Z,12.29
2022-10-08T17:59:02.907Z,12.23
2022-10-08T18:01:33.132Z,12.20
2022-10-08T18:04:02.669Z,12.12
2022-10-08T18:06:33.375Z,12.07
2022-10-08T18:09:03.103Z,12.00
2022-10-08T18:11:33.470Z,11.96
2022-10-08T18:14:02.656Z,11.95
2022-10-08T18:16:30.694Z,11.86
2022-10-08T18:18:58.658Z,11.84
2022-10-08T18:21:27.113Z,11.77
2022-10-08T18:23:56.410Z,11.72
2022-10-08T18:26:26.300Z,11.66
2022-10-08T18:28:56.294Z,11.59
2022-10-08T18:31:26.235Z,11.57
2022-10-08T18:33:56.860Z,11.49
2022-10-08T18:36:26.492Z,11.45
2022-10-08T18:38:57.538Z,11.39
2022-10-08T18:41:27.870Z,11.32
2022-10-08T18:43:56.174Z,11.28
2022-10-08T18:46:24.640Z,11.25
2022-10-08T18:48:52.876Z,11.23
2022-10-08T18:51:22.390Z,11.19
2022-10-08T18:53:52.256Z,11.16
2022-10-08T18:56:25.334Z,11.14
2022-10-08T18:58:53.665Z,11.06
2022-10-08T19:01:23.115Z,11.04
2022-10-08T19:03:53.636Z,11.03
2022-10-08T19:06:23.789Z,10.99
2022-10-08T19:08:52.011Z,10.96
2022-10-08T19:11:24.064Z,10.93
2022-10-08T19:13:53.642Z,10.91
2022-10-08T19:16:21.831Z,10.82
2022-10-08T19:18:54.274Z,10.78
2022-10-08T19:21:22.976Z,10.80
2022-10-08T19:23:51.244Z,10.74
2022-10-08T19:26:19.875Z,10.72
2022-10-08T19:28:51.292Z,10.75
2022-10-08T19:31:21.496Z,10.74
2022-10-08T19:33:50.631Z,10.70
2022-10-08T19:36:18.833Z,10.69
2022-10-08T19:38:52.373Z,10.64
2022-10-08T19:41:20.559Z,10.68
2022-10-08T19:43:49.785Z,10.69
2022-10-08T19:46:18.042Z,10.72
2022-10-08T19:48:49.643Z,10.69
2022-10-08T19:51:18.439Z,10.67
2022-10-08T19:53:46.791Z,10.68
2022-10-08T19:56:15.261Z,10.72
2022-10-08T19:58:48.480Z,10.66
2022-10-08T20:01:20.191Z,10.63
2022-10-08T20:03:48.321Z,10.63
2022-10-08T20:06:23.243Z,10.61
2022-10-08T20:08:54.645Z,10.60
2022-10-08T20:11:23.396Z,10.61
2022-10-08T20:13:53.039Z,10.59
2022-10-08T20:16:24.261Z,10.60
2022-10-08T20:18:53.741Z,10.63
2022-10-08T20:21:22.285Z,10.61
2022-10-08T20:23:50.517Z,10.61
2022-10-08T20:26:20.070Z,10.64
2022-10-08T20:28:49.435Z,10.68
2022-10-08T20:31:19.472Z,10.60
2022-10-08T20:33:49.150Z,10.67
2022-10-08T20:36:18.071Z,10.66
2022-10-08T20:38:45.975Z,10.70
2022-10-08T20:41:13.856Z,10.68
2022-10-08T20:43:41.728Z,10.67
2022-10-08T20:46:12.003Z,10.67
2022-10-08T20:48:41.820Z,10.65
2022-10-08T20:51:13.138Z,10.65
2022-10-08T20:53:41.833Z,10.68
2022-10-08T20:56:12.156Z,10.68
2022-10-08T20:58:40.541Z,10.69
2022-10-08T21:01:10.348Z,10.65
2022-10-08T21:03:39.354Z,10.65
2022-10-08T21:06:08.514Z,10.66
2022-10-08T21:08:39.352Z,10.65
2022-10-08T21:11:08.878Z,10.60
2022-10-08T21:13:37.282Z,10.63
2022-10-08T21:16:07.536Z,10.62
2022-10-08T21:18:36.716Z,10.63
2022-10-08T21:21:05.442Z,10.59
2022-10-08T21:23:33.934Z,10.57
2022-10-08T21:26:12.515Z,10.53
2022-10-08T21:28:40.755Z,10.51
2022-10-08T21:31:09.714Z,10.48
2022-10-08T21:33:38.562Z,10.48
2022-10-08T21:36:08.242Z,10.44
2022-10-08T21:38:36.165Z,10.46
2022-10-08T21:41:11.724Z,10.44
2022-10-08T21:43:41.426Z,10.43
2022-10-08T21:46:10.668Z,10.40
2022-10-08T21:48:39.351Z,10.37
2022-10-08T21:51:09.771Z,10.33
2022-10-08T21:53:39.715Z,10.32
2022-10-08T21:56:09.429Z,10.27
2022-10-08T21:58:39.430Z,10.24
2022-10-08T22:01:18.961Z,10.20
2022-10-08T22:03:47.274Z,10.16
2022-10-08T22:06:15.190Z,10.13
2022-10-08T22:08:43.023Z,10.08
2022-10-08T22:11:11.344Z,10.02
2022-10-08T22:13:39.364Z,10.03
2022-10-08T22:16:09.511Z,9.97
2022-10-08T22:18:37.602Z,9.97
2022-10-08T22:21:07.511Z,9.86
2022-10-08T22:23:36.894Z,9.80
2022-10-08T22:26:07.647Z,9.78
2022-10-08T22:28:36.234Z,9.71
2022-10-08T22:31:05.949Z,9.70
2022-10-08T22:33:36.230Z,9.68
2022-10-08T22:36:05.688Z,9.64
2022-10-08T22:38:34.394Z,9.57
2022-10-08T22:41:03.314Z,9.55
2022-10-08T22:43:31.255Z,9.50
2022-10-08T22:46:03.035Z,9.49
2022-10-08T22:48:31.362Z,9.37
2022-10-08T22:51:03.589Z,9.38
2022-10-08T22:53:31.615Z,9.30
2022-10-08T22:56:00.155Z,9.29
2022-10-08T22:58:28.006Z,9.26
2022-10-08T23:00:59.882Z,9.21
2022-10-08T23:03:27.789Z,9.21
2022-10-08T23:06:05.382Z,9.17
2022-10-08T23:08:33.686Z,9.16
2022-10-08T23:11:02.193Z,9.13
2022-10-08T23:13:31.244Z,9.13
2022-10-08T23:16:00.571Z,9.11
2022-10-08T23:18:28.463Z,9.06
2022-10-08T23:20:56.323Z,8.96
2022-10-08T23:23:25.610Z,8.89
2022-10-08T23:25:54.644Z,8.91
2022-10-08T23:28:22.665Z,8.93
2022-10-08T23:30:50.748Z,8.88
2022-10-08T23:33:18.737Z,8.87
2022-10-08T23:35:54.043Z,8.91
2022-10-08T23:38:22.000Z,8.88
2022-10-08T23:40:51.596Z,8.86
2022-10-08T23:43:19.507Z,8.82
2022-10-08T23:45:47.494Z,8.78
2022-10-08T23:48:15.400Z,8.75
2022-10-08T23:50:43.315Z,8.68
2022-10-08T23:53:11.492Z,8.67
2022-10-08T23:55:39.372Z,8.64
2022-10-08T23:58:08.597Z,8.59
